createdAt,value
2022-10-02T00:00:57.044Z,100244.47
2022-10-02T00:03:28.408Z,100230.66
2022-10-02T00:06:01.293Z,100211.66
2022-10-02T00:08:35.575Z,100217.69
2022-10-02T00:11:09.137Z,100232.38
2022-10-02T00:13:42.156Z,100231.47
2022-10-02T00:16:16.197Z,100242.66
2022-10-02T00:18:45.127Z,100253.84
2022-10-02T00:21:22.313Z,100266.78
2022-10-02T00:23:54.960Z,100260.75
2022-10-02T00:26:27.517Z,100261.59
2022-10-02T00:29:02.605Z,100265.00
2022-10-02T00:31:39.376Z,100255.50
2022-10-02T00:34:21.772Z,100257.28
2022-10-02T00:36:58.489Z,100267.63
2022-10-02T00:39:40.767Z,100275.50
2022-10-02T00:42:42.041Z,100274.69
2022-10-02T00:45:36.939Z,100273.91
2022-10-02T00:48:13.685Z,100289.56
2022-10-02T00:50:51.097Z,100281.81
2022-10-02T00:53:31.710Z,100287.06
2022-10-02T00:56:12.763Z,100297.44
2022-10-02T00:59:01.065Z,100287.19
2022-10-02T01:01:42.314Z,100290.63
2022-10-02T01:04:14.356Z,100293.28
2022-10-02T01:06:42.921Z,100286.34
2022-10-02T01:09:12.016Z,100282.06
2022-10-02T01:11:39.710Z,100270.78
2022-10-02T01:14:07.800Z,100257.81
2022-10-02T01:16:37.020Z,100265.56
2022-10-02T01:19:04.947Z,100269.91
2022-10-02T01:21:38.513Z,100268.13
2022-10-02T01:24:14.764Z,100271.56
2022-10-02T01:26:45.733Z,100275.88
2022-10-02T01:29:16.416Z,100282.00
2022-10-02T01:31:44.205Z,100294.09
2022-10-02T01:34:12.253Z,100287.25
2022-10-02T01:36:39.983Z,100289.84
2022-10-02T01:39:07.833Z,100288.16
2022-10-02T01:41:40.931Z,100289.91
2022-10-02T01:44:10.608Z,100277.75
2022-10-02T01:46:48.241Z,100276.88
2022-10-02T01:49:31.397Z,100268.22
2022-10-02T01:52:20.041Z,100280.28
2022-10-02T01:54:59.336Z,100281.22
2022-10-02T01:57:39.052Z,100288.06
2022-10-02T02:00:11.797Z,100295.09
2022-10-02T02:02:49.326Z,100286.50
2022-10-02T02:05:25.805Z,100291.63
2022-10-02T02:08:01.847Z,100277.78
2022-10-02T02:10:42.680Z,100285.59
2022-10-02T02:13:16.916Z,100272.72
2022-10-02T02:15:51.829Z,100274.47
2022-10-02T02:18:25.892Z,100281.34
2022-10-02T02:20:58.384Z,100274.41
2022-10-02T02:23:30.695Z,100281.38
2022-10-02T02:26:03.628Z,100278.78
2022-10-02T02:28:33.815Z,100278.75
2022-10-02T02:31:04.636Z,100269.22
2022-10-02T02:33:37.683Z,100277.81
2022-10-02T02:36:12.508Z,100276.06
2022-10-02T02:38:45.223Z,100280.34
2022-10-02T02:41:16.386Z,100291.63
2022-10-02T02:43:48.284Z,100290.84
2022-10-02T02:46:23.791Z,100302.00
2022-10-02T02:48:56.958Z,100293.34
2022-10-02T02:51:28.500Z,100285.56
2022-10-02T02:54:04.114Z,100295.94
2022-10-02T02:56:34.269Z,100295.03
2022-10-02T02:59:07.516Z,100289.03
2022-10-02T03:01:36.952Z,100289.91
2022-10-02T03:04:04.545Z,100289.84
2022-10-02T03:06:38.022Z,100287.25
2022-10-02T03:09:07.996Z,100296.88
2022-10-02T03:11:46.744Z,100294.22
2022-10-02T03:14:45.688Z,100289.03
2022-10-02T03:17:27.936Z,100295.00
2022-10-02T03:20:07.164Z,100291.63
2022-10-02T03:22:42.106Z,100289.03
2022-10-02T03:25:16.621Z,100283.00
2022-10-02T03:27:49.335Z,100296.94
2022-10-02T03:30:20.550Z,100279.69
2022-10-02T03:32:53.517Z,100280.56
2022-10-02T03:35:22.687Z,100284.94
2022-10-02T03:37:52.983Z,100281.44
2022-10-02T03:40:23.037Z,100281.44
2022-10-02T03:42:51.808Z,100287.50
2022-10-02T03:45:46.194Z,100293.53
2022-10-02T03:48:08.844Z,100293.53
2022-10-02T03:50:36.707Z,100312.56
2022-10-02T03:53:12.888Z,100305.66
2022-10-02T03:55:42.835Z,100306.53
2022-10-02T03:58:14.528Z,100300.47
2022-10-02T04:00:48.032Z,100321.16
2022-10-02T04:03:19.324Z,100311.59
2022-10-02T04:05:52.615Z,100310.66
2022-10-02T04:08:23.512Z,100333.13
2022-10-02T04:10:55.561Z,100331.31
2022-10-02T04:13:29.712Z,100336.44
2022-10-02T04:16:05.993Z,100317.28
2022-10-02T04:18:41.627Z,100336.88
2022-10-02T04:21:17.326Z,100330.69
2022-10-02T04:23:51.525Z,100315.84
2022-10-02T04:26:25.528Z,100320.19
2022-10-02T04:28:57.708Z,100331.38
2022-10-02T04:31:27.204Z,100328.78
2022-10-02T04:34:02.320Z,100321.00
2022-10-02T04:36:42.008Z,100307.19
2022-10-02T04:39:30.424Z,100305.47
2022-10-02T04:42:24.158Z,100299.41
2022-10-02T04:45:10.381Z,100298.50
2022-10-02T04:48:01.357Z,100303.66
2022-10-02T04:50:52.577Z,100300.19
2022-10-02T04:53:32.854Z,100298.47
2022-10-02T04:56:27.720Z,100297.59
2022-10-02T04:59:16.967Z,100297.63
2022-10-02T05:01:56.526Z,100302.78
2022-10-02T05:04:41.856Z,100294.97
2022-10-02T05:07:31.019Z,100302.72
2022-10-02T05:10:03.260Z,100302.63
2022-10-02T05:12:45.745Z,100303.44
2022-10-02T05:15:27.595Z,100299.91
2022-10-02T05:18:08.810Z,100307.66
2022-10-02T05:20:53.160Z,100312.81
2022-10-02T05:23:50.921Z,100317.84
2022-10-02T05:26:36.952Z,100322.91
2022-10-02T05:29:31.092Z,100327.19
2022-10-02T05:32:05.768Z,100331.38
2022-10-02T05:34:49.585Z,100327.06
2022-10-02T05:37:31.665Z,100327.06
2022-10-02T05:40:11.123Z,100332.34
2022-10-02T05:42:45.035Z,100332.31
2022-10-02T05:45:22.592Z,100334.94
2022-10-02T05:47:51.682Z,100328.91
2022-10-02T05:50:22.344Z,100329.75
2022-10-02T05:52:57.150Z,100334.91
2022-10-02T05:55:33.769Z,100317.69
2022-10-02T05:58:07.258Z,100314.31
2022-10-02T06:00:39.164Z,100315.16
2022-10-02T06:03:16.128Z,100306.53
2022-10-02T06:05:55.148Z,100294.47
2022-10-02T06:08:29.709Z,100302.22
2022-10-02T06:11:04.300Z,100291.03
2022-10-02T06:13:37.992Z,100282.31
2022-10-02T06:16:13.577Z,100288.31
2022-10-02T06:18:44.799Z,100299.44
2022-10-02T06:21:24.994Z,100294.31
2022-10-02T06:23:57.025Z,100313.53
2022-10-02T06:26:39.229Z,100307.41
2022-10-02T06:29:18.660Z,100300.50
2022-10-02T06:31:54.519Z,100298.94
2022-10-02T06:34:23.475Z,100307.56
2022-10-02T06:37:04.350Z,100307.41
2022-10-02T06:39:57.871Z,100303.13
2022-10-02T06:42:42.675Z,100298.69
2022-10-02T06:45:24.156Z,100286.50
2022-10-02T06:48:02.982Z,100279.56
2022-10-02T06:50:42.920Z,100302.84
2022-10-02T06:53:25.491Z,100303.63
2022-10-02T06:56:01.216Z,100291.63
2022-10-02T06:58:46.253Z,100289.03
2022-10-02T07:01:25.946Z,100281.34
2022-10-02T07:04:07.740Z,100282.94
2022-10-02T07:06:47.239Z,100282.94
2022-10-02T07:09:39.324Z,100284.69
2022-10-02T07:12:21.051Z,100279.56
2022-10-02T07:15:10.864Z,100283.06
2022-10-02T07:17:54.164Z,100287.41
2022-10-02T07:20:33.535Z,100282.22
2022-10-02T07:23:26.497Z,100282.28
2022-10-02T07:26:15.365Z,100270.25
2022-10-02T07:28:51.413Z,100263.41
2022-10-02T07:31:33.003Z,100257.44
2022-10-02T07:34:15.581Z,100251.50
2022-10-02T07:36:50.000Z,100254.94
2022-10-02T07:39:33.056Z,100259.34
2022-10-02T07:42:14.577Z,100261.03
2022-10-02T07:45:02.256Z,100261.03
2022-10-02T07:47:46.936Z,100252.34
2022-10-02T07:50:20.230Z,100246.41
2022-10-02T07:52:56.329Z,100242.97
2022-10-02T07:55:24.999Z,100243.94
2022-10-02T07:58:00.478Z,100233.72
2022-10-02T08:00:31.883Z,100241.56
2022-10-02T08:03:03.580Z,100253.66
2022-10-02T08:05:35.776Z,100253.59
2022-10-02T08:08:10.796Z,100241.34
2022-10-02T08:10:42.612Z,100242.38
2022-10-02T08:13:20.638Z,100242.44
2022-10-02T08:15:52.377Z,100237.38
2022-10-02T08:18:36.144Z,100234.84
2022-10-02T08:21:06.487Z,100244.41
2022-10-02T08:23:40.191Z,100242.94
2022-10-02T08:26:12.532Z,100237.94
2022-10-02T08:28:44.887Z,100245.03
2022-10-02T08:31:13.331Z,100239.13
2022-10-02T08:33:43.179Z,100246.97
2022-10-02T08:36:29.760Z,100240.16
2022-10-02T08:39:09.268Z,100241.88
2022-10-02T08:42:12.359Z,100252.16
2022-10-02T08:45:14.771Z,100252.88
2022-10-02T08:48:12.064Z,100251.81
2022-10-02T08:51:20.580Z,100265.53
2022-10-02T08:54:27.019Z,100245.63
2022-10-02T08:57:13.126Z,100258.63
2022-10-02T09:00:10.069Z,100260.41
2022-10-02T09:03:15.789Z,100268.94
2022-10-02T09:06:16.969Z,100253.16
2022-10-02T09:09:35.636Z,100249.59
2022-10-02T09:12:24.064Z,100251.25
2022-10-02T09:14:58.020Z,100244.41
2022-10-02T09:17:44.104Z,100239.28
2022-10-02T09:21:08.112Z,100245.41
2022-10-02T09:24:17.039Z,100239.53
2022-10-02T09:27:03.388Z,100243.13
2022-10-02T09:30:09.914Z,100251.06
2022-10-02T09:33:29.312Z,100248.59
2022-10-02T09:36:40.899Z,100247.72
2022-10-02T09:39:36.262Z,100241.72
2022-10-02T09:42:44.637Z,100242.47
2022-10-02T09:45:40.945Z,100238.16
2022-10-02T09:48:40.793Z,100238.22
2022-10-02T09:51:41.753Z,100245.13
2022-10-02T09:54:42.166Z,100239.94
2022-10-02T09:57:45.180Z,100257.97
2022-10-02T10:00:27.468Z,100274.28
2022-10-02T10:03:31.120Z,100265.34
2022-10-02T10:06:29.495Z,100239.44
2022-10-02T10:09:34.843Z,100243.78
2022-10-02T10:12:35.211Z,100255.09
2022-10-02T10:15:38.470Z,100255.03
2022-10-02T10:18:36.313Z,100261.03
2022-10-02T10:21:18.073Z,100251.44
2022-10-02T10:24:27.653Z,100248.88
2022-10-02T10:27:18.016Z,100255.03
2022-10-02T10:30:09.637Z,100272.22
2022-10-02T10:33:02.872Z,100270.44
2022-10-02T10:36:29.325Z,100272.13
2022-10-02T10:39:14.615Z,100284.97
2022-10-02T10:42:24.067Z,100272.03
2022-10-02T10:45:19.891Z,100275.50
2022-10-02T10:48:05.328Z,100280.75
2022-10-02T10:50:44.292Z,100274.78
2022-10-02T10:53:34.304Z,100280.88
2022-10-02T10:56:36.969Z,100284.34
2022-10-02T10:59:49.107Z,100290.25
2022-10-02T11:02:54.715Z,100299.69
2022-10-02T11:05:40.844Z,100279.00
2022-10-02T11:08:33.214Z,100275.56
2022-10-02T11:11:08.723Z,100270.56
2022-10-02T11:13:58.248Z,100279.38
2022-10-02T11:17:03.396Z,100276.03
2022-10-02T11:19:47.642Z,100267.53
2022-10-02T11:22:40.650Z,100259.88
2022-10-02T11:25:46.966Z,100260.84
2022-10-02T11:28:40.013Z,100253.94
2022-10-02T11:31:22.738Z,100256.47
2022-10-02T11:34:22.087Z,100260.81
2022-10-02T11:37:09.298Z,100254.00
2022-10-02T11:40:15.274Z,100255.00
2022-10-02T11:42:58.820Z,100253.47
2022-10-02T11:45:41.665Z,100257.84
2022-10-02T11:48:51.038Z,100245.72
2022-10-02T11:51:36.923Z,100256.25
2022-10-02T11:54:22.139Z,100241.50
2022-10-02T11:57:16.045Z,100247.47
2022-10-02T11:59:52.048Z,100240.47
2022-10-02T12:02:27.256Z,100245.59
2022-10-02T12:05:10.790Z,100256.72
2022-10-02T12:07:44.103Z,100266.03
2022-10-02T12:10:29.399Z,100260.69
2022-10-02T12:13:11.993Z,100269.34
2022-10-02T12:15:47.816Z,100276.19
2022-10-02T12:18:28.067Z,100276.19
2022-10-02T12:21:32.924Z,100286.44
2022-10-02T12:24:29.444Z,100287.44
2022-10-02T12:27:04.161Z,100279.72
2022-10-02T12:30:00.371Z,100290.94
2022-10-02T12:32:42.274Z,100286.63
2022-10-02T12:35:26.180Z,100286.72
2022-10-02T12:38:03.677Z,100290.25
2022-10-02T12:40:38.339Z,100303.31
2022-10-02T12:43:40.316Z,100300.78
2022-10-02T12:46:21.027Z,100293.75
2022-10-02T12:49:14.929Z,100283.44
2022-10-02T12:51:55.084Z,100284.34
2022-10-02T12:54:58.864Z,100280.91
2022-10-02T12:57:56.109Z,100278.34
2022-10-02T13:00:26.537Z,100273.06
2022-10-02T13:03:31.195Z,100272.19
2022-10-02T13:06:33.760Z,100268.69
2022-10-02T13:09:29.731Z,100273.88
2022-10-02T13:12:17.808Z,100268.69
2022-10-02T13:15:18.838Z,100273.00
2022-10-02T13:17:55.845Z,100266.97
2022-10-02T13:20:37.747Z,100266.91
2022-10-02T13:23:17.717Z,100270.47
2022-10-02T13:25:58.706Z,100266.25
2022-10-02T13:28:53.908Z,100278.53
2022-10-02T13:31:36.529Z,100293.28
2022-10-02T13:34:22.424Z,100307.13
2022-10-02T13:37:05.663Z,100292.47
2022-10-02T13:40:03.328Z,100301.06
2022-10-02T13:42:43.969Z,100301.03
2022-10-02T13:45:19.442Z,100302.56
2022-10-02T13:47:57.185Z,100297.31
2022-10-02T13:50:42.169Z,100292.94
2022-10-02T13:53:34.308Z,100281.72
2022-10-02T13:56:14.687Z,100269.59
2022-10-02T13:58:57.430Z,100278.25
2022-10-02T14:01:35.663Z,100271.28
2022-10-02T14:04:27.253Z,100274.75
2022-10-02T14:07:00.726Z,100277.38
2022-10-02T14:09:36.646Z,100260.94
2022-10-02T14:12:23.222Z,100269.66
2022-10-02T14:15:07.327Z,100277.38
2022-10-02T14:17:42.321Z,100273.88
2022-10-02T14:20:23.421Z,100284.25
2022-10-02T14:23:09.516Z,100283.44
2022-10-02T14:25:51.907Z,100283.38
2022-10-02T14:28:34.794Z,100278.16
2022-10-02T14:31:17.534Z,100286.78
2022-10-02T14:34:08.616Z,100271.06
2022-10-02T14:36:41.124Z,100266.69
2022-10-02T14:39:21.084Z,100248.53
2022-10-02T14:42:03.756Z,100239.88
2022-10-02T14:44:57.254Z,100263.13
2022-10-02T14:47:42.372Z,100283.69
2022-10-02T14:50:34.039Z,100274.88
2022-10-02T14:53:15.480Z,100262.78
2022-10-02T14:56:22.540Z,100261.97
2022-10-02T14:59:04.927Z,100271.50
2022-10-02T15:01:42.141Z,100272.22
2022-10-02T15:04:29.164Z,100269.59
2022-10-02T15:07:07.720Z,100265.25
2022-10-02T15:09:49.159Z,100272.22
2022-10-02T15:12:20.750Z,100285.19
2022-10-02T15:14:58.943Z,100289.47
2022-10-02T15:17:53.751Z,100301.59
2022-10-02T15:20:27.364Z,100306.78
2022-10-02T15:22:57.373Z,100309.38
2022-10-02T15:25:36.533Z,100305.94
2022-10-02T15:28:35.212Z,100313.69
2022-10-02T15:31:17.021Z,100314.47
2022-10-02T15:33:56.696Z,100319.59
2022-10-02T15:36:37.175Z,100323.03
2022-10-02T15:39:32.161Z,100324.78
2022-10-02T15:42:05.946Z,100330.81
2022-10-02T15:45:07.336Z,100329.06
2022-10-02T15:47:58.661Z,100316.94
2022-10-02T15:50:43.870Z,100307.38
2022-10-02T15:53:32.392Z,100312.56
2022-10-02T15:56:19.937Z,100322.91
2022-10-02T15:59:08.513Z,100309.97
2022-10-02T16:01:52.234Z,100318.66
2022-10-02T16:04:24.951Z,100319.59
2022-10-02T16:07:37.047Z,100336.81
2022-10-02T16:10:18.192Z,100349.75
2022-10-02T16:13:22.260Z,100355.81
2022-10-02T16:15:53.210Z,100373.91
2022-10-02T16:18:35.117Z,100367.03
2022-10-02T16:21:33.721Z,100366.25
2022-10-02T16:24:25.165Z,100366.31
2022-10-02T16:27:20.172Z,100361.94
2022-10-02T16:30:03.881Z,100358.47
2022-10-02T16:32:35.935Z,100361.00
2022-10-02T16:35:26.002Z,100360.09
2022-10-02T16:38:00.841Z,100377.28
2022-10-02T16:40:41.044Z,100384.97
2022-10-02T16:43:43.099Z,100388.25
2022-10-02T16:46:14.382Z,100401.09
2022-10-02T16:48:52.902Z,100402.75
2022-10-02T16:51:39.919Z,100408.63
2022-10-02T16:54:16.666Z,100411.31
2022-10-02T16:56:53.255Z,100402.78
2022-10-02T16:59:28.014Z,100401.03
2022-10-02T17:02:18.937Z,100391.47
2022-10-02T17:04:59.953Z,100394.03
2022-10-02T17:07:37.086Z,100407.84
2022-10-02T17:10:19.180Z,100413.03
2022-10-02T17:12:56.975Z,100422.56
2022-10-02T17:15:34.197Z,100431.25
2022-10-02T17:18:12.256Z,100433.81
2022-10-02T17:20:44.678Z,100446.88
2022-10-02T17:23:20.352Z,100446.00
2022-10-02T17:25:58.364Z,100436.31
2022-10-02T17:28:35.976Z,100456.03
2022-10-02T17:31:17.672Z,100464.53
2022-10-02T17:33:47.878Z,100469.59
2022-10-02T17:36:21.087Z,100473.94
2022-10-02T17:39:08.152Z,100473.16
2022-10-02T17:41:48.348Z,100462.72
2022-10-02T17:44:25.167Z,100470.50
2022-10-02T17:47:16.204Z,100483.41
2022-10-02T17:49:57.715Z,100479.19
2022-10-02T17:52:50.040Z,100484.44
2022-10-02T17:55:54.100Z,100482.75
2022-10-02T17:58:31.429Z,100488.72
2022-10-02T18:01:13.664Z,100478.38
2022-10-02T18:04:03.429Z,100467.13
2022-10-02T18:06:41.822Z,100475.75
2022-10-02T18:09:30.724Z,100469.59
2022-10-02T18:12:18.665Z,100467.78
2022-10-02T18:15:04.652Z,100478.91
2022-10-02T18:17:45.961Z,100488.19
2022-10-02T18:20:24.377Z,100476.97
2022-10-02T18:23:11.244Z,100473.44
2022-10-02T18:25:56.905Z,100474.25
2022-10-02T18:28:48.486Z,100494.03
2022-10-02T18:31:51.108Z,100503.47
2022-10-02T18:34:38.191Z,100498.31
2022-10-02T18:37:25.317Z,100508.59
2022-10-02T18:40:06.839Z,100507.72
2022-10-02T18:42:46.452Z,100511.22
2022-10-02T18:45:36.771Z,100506.88
2022-10-02T18:48:19.980Z,100495.63
2022-10-02T18:51:16.734Z,100495.56
2022-10-02T18:53:59.232Z,100498.97
2022-10-02T18:56:44.340Z,100501.47
2022-10-02T18:59:23.316Z,100501.41
2022-10-02T19:02:03.016Z,100498.00
2022-10-02T19:04:59.867Z,100502.22
2022-10-02T19:07:37.665Z,100513.38
2022-10-02T19:10:26.151Z,100505.53
2022-10-02T19:12:57.354Z,100507.91
2022-10-02T19:15:28.313Z,100516.47
2022-10-02T19:18:01.257Z,100517.28
2022-10-02T19:20:38.079Z,100530.22
2022-10-02T19:23:10.016Z,100542.25
2022-10-02T19:25:37.576Z,100550.84
2022-10-02T19:28:06.420Z,100559.50
2022-10-02T19:30:34.660Z,100554.31
2022-10-02T19:33:07.568Z,100561.19
2022-10-02T19:35:42.392Z,100570.66
2022-10-02T19:38:21.055Z,100570.53
2022-10-02T19:40:53.880Z,100580.75
2022-10-02T19:43:26.433Z,100582.31
2022-10-02T19:45:58.575Z,100589.91
2022-10-02T19:48:28.821Z,100604.47
2022-10-02T19:50:59.423Z,100607.81
2022-10-02T19:53:34.009Z,100613.59
2022-10-02T19:56:04.815Z,100616.97
2022-10-02T19:58:38.557Z,100628.88
2022-10-02T20:01:16.594Z,100630.38
2022-10-02T20:03:45.274Z,100640.63
2022-10-02T20:06:17.612Z,100640.47
2022-10-02T20:08:54.743Z,100637.75
2022-10-02T20:11:31.206Z,100652.38
2022-10-02T20:14:05.388Z,100658.34
2022-10-02T20:16:50.633Z,100658.38
2022-10-02T20:19:21.695Z,100661.13
2022-10-02T20:21:52.194Z,100660.38
2022-10-02T20:24:27.780Z,100672.56
2022-10-02T20:27:01.980Z,100671.75
2022-10-02T20:29:36.948Z,100664.97
2022-10-02T20:32:09.399Z,100668.28
2022-10-02T20:34:40.753Z,100675.03
2022-10-02T20:37:13.776Z,100673.19
2022-10-02T20:39:49.412Z,100682.50
2022-10-02T20:42:22.817Z,100679.78
2022-10-02T20:44:51.291Z,100688.28
2022-10-02T20:48:03.632Z,100696.84
2022-10-02T20:50:41.359Z,100692.38
2022-10-02T20:53:37.102Z,100697.66
2022-10-02T20:56:11.131Z,100701.22
2022-10-02T20:59:06.734Z,100707.44
2022-10-02T21:01:46.064Z,100713.47
2022-10-02T21:04:44.558Z,100717.03
2022-10-02T21:07:50.228Z,100725.53
2022-10-02T21:10:53.089Z,100728.22
2022-10-02T21:13:48.440Z,100728.28
2022-10-02T21:16:52.593Z,100731.81
2022-10-02T21:19:34.958Z,100738.59
2022-10-02T21:22:47.033Z,100743.59
2022-10-02T21:25:37.882Z,100748.69
2022-10-02T21:28:41.734Z,100751.31
2022-10-02T21:31:24.729Z,100767.69
2022-10-02T21:34:04.383Z,100767.78
2022-10-02T21:36:35.484Z,100761.72
2022-10-02T21:39:48.397Z,100757.53
2022-10-02T21:42:44.448Z,100759.28
2022-10-02T21:45:45.223Z,100756.69
2022-10-02T21:49:15.226Z,100765.28
2022-10-02T21:52:17.007Z,100767.78
2022-10-02T21:55:18.491Z,100769.53
2022-10-02T21:58:12.869Z,100768.56
2022-10-02T22:00:56.205Z,100774.53
2022-10-02T22:03:45.377Z,100777.09
2022-10-02T22:06:31.889Z,100774.53
2022-10-02T22:09:12.312Z,100782.31
2022-10-02T22:11:50.843Z,100790.88
2022-10-02T22:14:28.147Z,100787.44
2022-10-02T22:17:05.096Z,100784.84
2022-10-02T22:19:48.927Z,100784.84
2022-10-02T22:22:26.813Z,100789.06
2022-10-02T22:25:07.341Z,100782.13
2022-10-02T22:28:03.571Z,100783.84
2022-10-02T22:30:38.405Z,100785.41
2022-10-02T22:33:21.037Z,100781.81
2022-10-02T22:36:17.969Z,100786.75
2022-10-02T22:38:49.893Z,100791.00
2022-10-02T22:41:27.321Z,100792.69
2022-10-02T22:43:57.831Z,100789.16
2022-10-02T22:46:37.793Z,100790.91
2022-10-02T22:49:19.275Z,100796.84
2022-10-02T22:52:00.031Z,100798.38
2022-10-02T22:54:33.843Z,100796.53
2022-10-02T22:57:14.616Z,100809.31
2022-10-02T22:59:50.578Z,100807.50
2022-10-02T23:02:23.613Z,100810.78
2022-10-02T23:05:00.181Z,100802.09
2022-10-02T23:07:34.949Z,100807.19
2022-10-02T23:10:05.975Z,100807.19
2022-10-02T23:12:39.481Z,100808.06
2022-10-02T23:15:23.148Z,100811.50
2022-10-02T23:17:56.203Z,100814.09
2022-10-02T23:20:31.601Z,100821.00
2022-10-02T23:23:09.272Z,100816.53
2022-10-02T23:25:45.504Z,100809.47
2022-10-02T23:28:19.314Z,100806.69
2022-10-02T23:30:51.555Z,100813.34
2022-10-02T23:33:25.936Z,100809.75
2022-10-02T23:36:02.537Z,100818.16
2022-10-02T23:38:42.214Z,100817.13
2022-10-02T23:41:33.758Z,100821.28
2022-10-02T23:44:13.173Z,100820.25
2022-10-02T23:46:59.211Z,100815.72
2022-10-02T23:49:35.032Z,100815.56
2022-10-02T23:52:29.029Z,100831.78
2022-10-02T23:55:03.786Z,100842.72
2022-10-02T23:57:45.839Z,100842.50
